Etusivu
METAR-TAF:

METAR-TAF

Lentoasemat :

Dalton Municipal Airport

Dalton, Georgia, Yhdysvallat

Leveyspiiri: 34-43-18N, Pituuspiiri: 084-52-09W, korkeus merenpinnasta: 216 m

Tämänhetkinen sää

Tämä raportti tehtiin 23 minuuttia sitten, kello 01.35 UTC
tyyntä
Lämpötila 13°C
Kosteus 72%
Ilmanpaine 1015 hPa
Näkyvyys: 16.1 km
selkeää

METAR: KDNN 190135Z AUTO 00000KT 10SM CLR 13/08 A2997 RMK AO2

Aika: 21:58 (01:58 UTC)


TAF: puuttuu

Säähavainnot ja -ennusteet yli 4000 lentoasemalta (METAR- ja TAF-raportit).

Käytössä olevat sääasemat on merkitty karttaan keltaisilla ja punaisilla pisteillä.

Aseta hiiri pisteen päälle nähdäksesi sääaseman nimen.

Klikkaa sitten nähdäksesi säähavainnot ja -ennusteet.

Kartan vaihtaminen: klikkaa mustalla rastilla varustettuja vihreitä pisteitä, niin voit zoomata sisään; viivalla varustettua vihreää pistettä, niin voit zoomata ulos tai vihreitä nuolia, niin pääset viereisille kartoille.


METAR-TAF: